sensor_id;sensor_type;location;lat;lon;timestamp;P1;durP1;ratioP1;P2;durP2;ratioP2
3278;SDS011;1651;50.940;6.888;2022-07-06T00:01:19;2.53;;;1.93;;
3278;SDS011;1651;50.940;6.888;2022-07-06T00:03:45;3.73;;;2.27;;
3278;SDS011;1651;50.940;6.888;2022-07-06T00:06:11;2.30;;;1.70;;
3278;SDS011;1651;50.940;6.888;2022-07-06T00:08:37;8.40;;;2.57;;
3278;SDS011;1651;50.940;6.888;2022-07-06T00:11:03;2.73;;;2.30;;
3278;SDS011;1651;50.940;6.888;2022-07-06T00:13:29;6.67;;;2.80;;
3278;SDS011;1651;50.940;6.888;2022-07-06T00:15:56;3.63;;;2.10;;
3278;SDS011;1651;50.940;6.888;2022-07-06T00:18:22;2.67;;;2.07;;
3278;SDS011;1651;50.940;6.888;2022-07-06T00:20:48;2.43;;;2.10;;
3278;SDS011;1651;50.940;6.888;2022-07-06T00:23:14;6.23;;;2.70;;
3278;SDS011;1651;50.940;6.888;2022-07-06T00:25:40;2.90;;;2.60;;
3278;SDS011;1651;50.940;6.888;2022-07-06T00:28:06;5.03;;;2.50;;
3278;SDS011;1651;50.940;6.888;2022-07-06T00:30:32;3.40;;;2.57;;
3278;SDS011;1651;50.940;6.888;2022-07-06T00:32:58;3.57;;;2.60;;
3278;SDS011;1651;50.940;6.888;2022-07-06T00:35:25;6.13;;;2.50;;
3278;SDS011;1651;50.940;6.888;2022-07-06T00:37:51;2.50;;;2.10;;
3278;SDS011;1651;50.940;6.888;2022-07-06T00:40:17;3.60;;;2.67;;
3278;SDS011;1651;50.940;6.888;2022-07-06T00:42:44;4.73;;;2.47;;
3278;SDS011;1651;50.940;6.888;2022-07-06T00:45:11;3.80;;;2.57;;
3278;SDS011;1651;50.940;6.888;2022-07-06T00:47:38;3.20;;;2.43;;
3278;SDS011;1651;50.940;6.888;2022-07-06T00:50:04;3.23;;;2.50;;
3278;SDS011;1651;50.940;6.888;2022-07-06T00:52:40;4.70;;;2.83;;
3278;SDS011;1651;50.940;6.888;2022-07-06T00:55:07;3.20;;;2.57;;
3278;SDS011;1651;50.940;6.888;2022-07-06T00:57:33;2.47;;;2.17;;
3278;SDS011;1651;50.940;6.888;2022-07-06T00:59:59;3.23;;;2.83;;
3278;SDS011;1651;50.940;6.888;2022-07-06T01:02:26;3.30;;;2.63;;
3278;SDS011;1651;50.940;6.888;2022-07-06T01:04:52;3.10;;;2.30;;
3278;SDS011;1651;50.940;6.888;2022-07-06T01:07:18;3.60;;;2.70;;
3278;SDS011;1651;50.940;6.888;2022-07-06T01:09:44;4.23;;;2.93;;
3278;SDS011;1651;50.940;6.888;2022-07-06T01:12:10;6.60;;;3.23;;
3278;SDS011;1651;50.940;6.888;2022-07-06T01:14:36;4.80;;;2.83;;
3278;SDS011;1651;50.940;6.888;2022-07-06T01:17:02;5.40;;;2.63;;
3278;SDS011;1651;50.940;6.888;2022-07-06T01:19:29;5.20;;;2.53;;
3278;SDS011;1651;50.940;6.888;2022-07-06T01:21:55;4.13;;;3.03;;
3278;SDS011;1651;50.940;6.888;2022-07-06T01:24:21;2.67;;;2.17;;
3278;SDS011;1651;50.940;6.888;2022-07-06T01:26:47;3.30;;;2.97;;
3278;SDS011;1651;50.940;6.888;2022-07-06T01:29:13;5.20;;;3.47;;
3278;SDS011;1651;50.940;6.888;2022-07-06T01:31:47;3.53;;;2.73;;
3278;SDS011;1651;50.940;6.888;2022-07-06T01:34:13;3.60;;;3.17;;
3278;SDS011;1651;50.940;6.888;2022-07-06T01:36:40;3.30;;;2.90;;
3278;SDS011;1651;50.940;6.888;2022-07-06T01:39:08;4.47;;;2.70;;
3278;SDS011;1651;50.940;6.888;2022-07-06T01:41:34;3.10;;;2.80;;
3278;SDS011;1651;50.940;6.888;2022-07-06T01:44:00;5.43;;;3.07;;
3278;SDS011;1651;50.940;6.888;2022-07-06T01:46:26;4.23;;;3.10;;
3278;SDS011;1651;50.940;6.888;2022-07-06T01:48:52;3.10;;;2.90;;
3278;SDS011;1651;50.940;6.888;2022-07-06T01:51:20;5.37;;;3.10;;
3278;SDS011;1651;50.940;6.888;2022-07-06T01:53:46;5.90;;;2.53;;
3278;SDS011;1651;50.940;6.888;2022-07-06T01:56:12;3.47;;;3.10;;
3278;SDS011;1651;50.940;6.888;2022-07-06T01:58:38;4.93;;;3.13;;
3278;SDS011;1651;50.940;6.888;2022-07-06T02:01:15;5.67;;;2.90;;
3278;SDS011;1651;50.940;6.888;2022-07-06T02:03:41;5.40;;;2.90;;
3278;SDS011;1651;50.940;6.888;2022-07-06T02:06:10;4.57;;;3.37;;
3278;SDS011;1651;50.940;6.888;2022-07-06T02:08:37;3.37;;;3.07;;
3278;SDS011;1651;50.940;6.888;2022-07-06T02:11:04;3.93;;;2.70;;
3278;SDS011;1651;50.940;6.888;2022-07-06T02:13:30;2.90;;;2.25;;
3278;SDS011;1651;50.940;6.888;2022-07-06T02:15:56;5.47;;;2.83;;
3278;SDS011;1651;50.940;6.888;2022-07-06T02:18:22;5.13;;;3.63;;
3278;SDS011;1651;50.940;6.888;2022-07-06T02:20:48;5.30;;;2.93;;
3278;SDS011;1651;50.940;6.888;2022-07-06T02:23:14;4.40;;;3.00;;
3278;SDS011;1651;50.940;6.888;2022-07-06T02:25:40;3.40;;;2.70;;
3278;SDS011;1651;50.940;6.888;2022-07-06T02:28:07;8.53;;;3.20;;
3278;SDS011;1651;50.940;6.888;2022-07-06T02:30:35;3.90;;;2.80;;
3278;SDS011;1651;50.940;6.888;2022-07-06T02:33:01;4.10;;;2.73;;
3278;SDS011;1651;50.940;6.888;2022-07-06T02:35:27;2.73;;;2.40;;
3278;SDS011;1651;50.940;6.888;2022-07-06T02:37:54;4.23;;;3.20;;
3278;SDS011;1651;50.940;6.888;2022-07-06T02:40:20;5.40;;;2.70;;
3278;SDS011;1651;50.940;6.888;2022-07-06T02:42:47;3.63;;;2.80;;
3278;SDS011;1651;50.940;6.888;2022-07-06T02:45:13;3.15;;;2.85;;
3278;SDS011;1651;50.940;6.888;2022-07-06T02:47:39;7.50;;;2.73;;
3278;SDS011;1651;50.940;6.888;2022-07-06T02:50:06;3.93;;;2.60;;
3278;SDS011;1651;50.940;6.888;2022-07-06T02:52:32;3.65;;;2.72;;
3278;SDS011;1651;50.940;6.888;2022-07-06T02:57:27;3.85;;;2.75;;
3278;SDS011;1651;50.940;6.888;2022-07-06T02:59:53;3.80;;;2.35;;
3278;SDS011;1651;50.940;6.888;2022-07-06T03:02:19;3.13;;;2.83;;
3278;SDS011;1651;50.940;6.888;2022-07-06T03:04:47;7.70;;;2.80;;
3278;SDS011;1651;50.940;6.888;2022-07-06T03:07:13;3.92;;;3.28;;
3278;SDS011;1651;50.940;6.888;2022-07-06T03:09:40;3.10;;;2.42;;
3278;SDS011;1651;50.940;6.888;2022-07-06T03:12:06;3.20;;;2.90;;
3278;SDS011;1651;50.940;6.888;2022-07-06T03:14:32;2.80;;;2.53;;
3278;SDS011;1651;50.940;6.888;2022-07-06T03:16:58;3.28;;;2.30;;
3278;SDS011;1651;50.940;6.888;2022-07-06T03:19:26;3.22;;;2.83;;
3278;SDS011;1651;50.940;6.888;2022-07-06T03:21:54;3.65;;;2.83;;
3278;SDS011;1651;50.940;6.888;2022-07-06T03:24:21;6.40;;;2.90;;
3278;SDS011;1651;50.940;6.888;2022-07-06T03:26:47;5.80;;;3.03;;
3278;SDS011;1651;50.940;6.888;2022-07-06T03:29:13;3.50;;;2.50;;
3278;SDS011;1651;50.940;6.888;2022-07-06T03:31:39;3.70;;;2.83;;
3278;SDS011;1651;50.940;6.888;2022-07-06T03:34:05;7.43;;;3.00;;
3278;SDS011;1651;50.940;6.888;2022-07-06T03:36:32;3.00;;;2.73;;
3278;SDS011;1651;50.940;6.888;2022-07-06T03:38:58;3.65;;;2.47;;
3278;SDS011;1651;50.940;6.888;2022-07-06T03:41:24;6.43;;;2.83;;
3278;SDS011;1651;50.940;6.888;2022-07-06T03:43:50;6.80;;;2.50;;
3278;SDS011;1651;50.940;6.888;2022-07-06T03:46:16;4.10;;;2.97;;
3278;SDS011;1651;50.940;6.888;2022-07-06T03:48:42;3.97;;;2.77;;
3278;SDS011;1651;50.940;6.888;2022-07-06T03:51:08;4.50;;;2.63;;
3278;SDS011;1651;50.940;6.888;2022-07-06T03:53:36;4.50;;;2.75;;
3278;SDS011;1651;50.940;6.888;2022-07-06T03:56:02;2.87;;;2.67;;
3278;SDS011;1651;50.940;6.888;2022-07-06T03:58:46;12.73;;;2.63;;
3278;SDS011;1651;50.940;6.888;2022-07-06T04:01:12;4.95;;;2.90;;
3278;SDS011;1651;50.940;6.888;2022-07-06T04:03:38;5.32;;;2.63;;
3278;SDS011;1651;50.940;6.888;2022-07-06T04:06:05;2.65;;;2.30;;
3278;SDS011;1651;50.940;6.888;2022-07-06T04:08:31;3.47;;;3.17;;
3278;SDS011;1651;50.940;6.888;2022-07-06T04:10:58;3.60;;;2.50;;
3278;SDS011;1651;50.940;6.888;2022-07-06T04:13:25;3.92;;;3.00;;
3278;SDS011;1651;50.940;6.888;2022-07-06T04:15:51;6.25;;;2.40;;
3278;SDS011;1651;50.940;6.888;2022-07-06T04:18:17;3.17;;;2.88;;
3278;SDS011;1651;50.940;6.888;2022-07-06T04:20:45;3.37;;;2.83;;
3278;SDS011;1651;50.940;6.888;2022-07-06T04:23:12;2.77;;;2.50;;
3278;SDS011;1651;50.940;6.888;2022-07-06T04:25:39;4.83;;;3.20;;
3278;SDS011;1651;50.940;6.888;2022-07-06T04:28:05;5.10;;;2.50;;
3278;SDS011;1651;50.940;6.888;2022-07-06T04:30:32;4.10;;;2.50;;
3278;SDS011;1651;50.940;6.888;2022-07-06T04:32:58;5.20;;;2.50;;
3278;SDS011;1651;50.940;6.888;2022-07-06T04:35:26;5.57;;;2.53;;
3278;SDS011;1651;50.940;6.888;2022-07-06T04:37:55;4.23;;;3.13;;
3278;SDS011;1651;50.940;6.888;2022-07-06T04:40:21;3.10;;;2.90;;
3278;SDS011;1651;50.940;6.888;2022-07-06T04:42:47;5.33;;;3.10;;
3278;SDS011;1651;50.940;6.888;2022-07-06T04:45:13;5.13;;;2.63;;
3278;SDS011;1651;50.940;6.888;2022-07-06T04:47:42;6.63;;;2.57;;
3278;SDS011;1651;50.940;6.888;2022-07-06T04:50:30;4.33;;;2.07;;
3278;SDS011;1651;50.940;6.888;2022-07-06T04:53:00;7.33;;;2.87;;
3278;SDS011;1651;50.940;6.888;2022-07-06T04:55:26;5.40;;;2.97;;
3278;SDS011;1651;50.940;6.888;2022-07-06T04:57:52;14.90;;;3.77;;
3278;SDS011;1651;50.940;6.888;2022-07-06T05:00:18;8.40;;;3.40;;
3278;SDS011;1651;50.940;6.888;2022-07-06T05:02:48;6.80;;;2.97;;
3278;SDS011;1651;50.940;6.888;2022-07-06T05:05:14;2.90;;;2.40;;
3278;SDS011;1651;50.940;6.888;2022-07-06T05:07:42;5.73;;;2.77;;
3278;SDS011;1651;50.940;6.888;2022-07-06T05:10:21;6.80;;;3.07;;
3278;SDS011;1651;50.940;6.888;2022-07-06T05:12:48;3.30;;;2.33;;
3278;SDS011;1651;50.940;6.888;2022-07-06T05:15:15;5.43;;;2.73;;
3278;SDS011;1651;50.940;6.888;2022-07-06T05:17:56;5.27;;;2.77;;
3278;SDS011;1651;50.940;6.888;2022-07-06T05:20:24;9.23;;;2.47;;
3278;SDS011;1651;50.940;6.888;2022-07-06T05:22:49;10.70;;;2.37;;
3278;SDS011;1651;50.940;6.888;2022-07-06T05:25:17;3.57;;;2.53;;
3278;SDS011;1651;50.940;6.888;2022-07-06T05:27:43;5.17;;;2.50;;
3278;SDS011;1651;50.940;6.888;2022-07-06T05:30:09;4.73;;;3.17;;
3278;SDS011;1651;50.940;6.888;2022-07-06T05:32:35;4.00;;;1.90;;
3278;SDS011;1651;50.940;6.888;2022-07-06T05:35:01;4.20;;;2.23;;
3278;SDS011;1651;50.940;6.888;2022-07-06T05:37:27;3.30;;;2.00;;
3278;SDS011;1651;50.940;6.888;2022-07-06T05:39:53;3.27;;;1.80;;
3278;SDS011;1651;50.940;6.888;2022-07-06T05:42:19;3.60;;;1.60;;
3278;SDS011;1651;50.940;6.888;2022-07-06T05:44:45;4.20;;;1.57;;
3278;SDS011;1651;50.940;6.888;2022-07-06T05:47:11;4.43;;;2.03;;
3278;SDS011;1651;50.940;6.888;2022-07-06T05:49:56;2.80;;;1.50;;
3278;SDS011;1651;50.940;6.888;2022-07-06T05:52:38;2.33;;;1.57;;
3278;SDS011;1651;50.940;6.888;2022-07-06T05:55:04;2.67;;;2.13;;
3278;SDS011;1651;50.940;6.888;2022-07-06T05:57:31;4.27;;;1.50;;
3278;SDS011;1651;50.940;6.888;2022-07-06T05:59:58;11.13;;;1.70;;
3278;SDS011;1651;50.940;6.888;2022-07-06T06:02:24;4.40;;;1.50;;
3278;SDS011;1651;50.940;6.888;2022-07-06T06:04:50;2.90;;;2.07;;
3278;SDS011;1651;50.940;6.888;2022-07-06T06:07:16;4.40;;;2.03;;
3278;SDS011;1651;50.940;6.888;2022-07-06T06:09:43;3.07;;;1.60;;
3278;SDS011;1651;50.940;6.888;2022-07-06T06:12:10;3.53;;;1.50;;
3278;SDS011;1651;50.940;6.888;2022-07-06T06:14:37;2.00;;;1.37;;
3278;SDS011;1651;50.940;6.888;2022-07-06T06:17:03;2.13;;;1.50;;
3278;SDS011;1651;50.940;6.888;2022-07-06T06:19:33;4.23;;;1.33;;
3278;SDS011;1651;50.940;6.888;2022-07-06T06:22:01;30.97;;;7.00;;
3278;SDS011;1651;50.940;6.888;2022-07-06T06:24:27;4.63;;;1.43;;
3278;SDS011;1651;50.940;6.888;2022-07-06T06:26:53;4.97;;;1.90;;
3278;SDS011;1651;50.940;6.888;2022-07-06T06:29:20;3.00;;;1.70;;
3278;SDS011;1651;50.940;6.888;2022-07-06T06:31:46;3.33;;;1.30;;
3278;SDS011;1651;50.940;6.888;2022-07-06T06:34:13;2.23;;;1.53;;
3278;SDS011;1651;50.940;6.888;2022-07-06T06:36:39;4.57;;;1.40;;
3278;SDS011;1651;50.940;6.888;2022-07-06T06:39:07;2.20;;;1.20;;
3278;SDS011;1651;50.940;6.888;2022-07-06T06:41:35;2.10;;;1.30;;
3278;SDS011;1651;50.940;6.888;2022-07-06T06:44:01;2.80;;;1.10;;
3278;SDS011;1651;50.940;6.888;2022-07-06T06:46:27;3.27;;;1.53;;
3278;SDS011;1651;50.940;6.888;2022-07-06T06:48:53;3.73;;;1.27;;
3278;SDS011;1651;50.940;6.888;2022-07-06T06:51:19;2.97;;;1.33;;
3278;SDS011;1651;50.940;6.888;2022-07-06T06:53:45;2.73;;;1.13;;
3278;SDS011;1651;50.940;6.888;2022-07-06T06:56:11;2.50;;;1.20;;
3278;SDS011;1651;50.940;6.888;2022-07-06T06:58:37;1.63;;;1.00;;
3278;SDS011;1651;50.940;6.888;2022-07-06T07:01:04;2.53;;;1.40;;
3278;SDS011;1651;50.940;6.888;2022-07-06T07:03:30;4.03;;;0.97;;
3278;SDS011;1651;50.940;6.888;2022-07-06T07:05:57;3.33;;;0.90;;
3278;SDS011;1651;50.940;6.888;2022-07-06T07:08:23;3.83;;;1.30;;
3278;SDS011;1651;50.940;6.888;2022-07-06T07:10:49;2.97;;;1.20;;
3278;SDS011;1651;50.940;6.888;2022-07-06T07:13:15;3.10;;;1.80;;
3278;SDS011;1651;50.940;6.888;2022-07-06T07:15:42;2.05;;;1.35;;
3278;SDS011;1651;50.940;6.888;2022-07-06T07:18:08;3.17;;;1.33;;
3278;SDS011;1651;50.940;6.888;2022-07-06T07:20:34;3.83;;;1.27;;
3278;SDS011;1651;50.940;6.888;2022-07-06T07:23:00;3.63;;;1.40;;
3278;SDS011;1651;50.940;6.888;2022-07-06T07:25:26;3.10;;;1.53;;
3278;SDS011;1651;50.940;6.888;2022-07-06T07:27:53;2.93;;;1.40;;
3278;SDS011;1651;50.940;6.888;2022-07-06T07:30:20;3.33;;;1.70;;
3278;SDS011;1651;50.940;6.888;2022-07-06T07:32:46;2.23;;;1.70;;
3278;SDS011;1651;50.940;6.888;2022-07-06T07:35:13;3.10;;;1.40;;
3278;SDS011;1651;50.940;6.888;2022-07-06T07:37:39;2.33;;;1.33;;
3278;SDS011;1651;50.940;6.888;2022-07-06T07:40:07;2.37;;;1.30;;
3278;SDS011;1651;50.940;6.888;2022-07-06T07:42:33;6.43;;;1.90;;
3278;SDS011;1651;50.940;6.888;2022-07-06T07:45:01;5.13;;;1.67;;
3278;SDS011;1651;50.940;6.888;2022-07-06T07:47:27;4.00;;;1.23;;
3278;SDS011;1651;50.940;6.888;2022-07-06T07:49:53;5.73;;;1.40;;
3278;SDS011;1651;50.940;6.888;2022-07-06T07:52:19;1.50;;;0.97;;
3278;SDS011;1651;50.940;6.888;2022-07-06T07:54:45;1.10;;;0.90;;
3278;SDS011;1651;50.940;6.888;2022-07-06T07:57:11;2.97;;;1.20;;
3278;SDS011;1651;50.940;6.888;2022-07-06T07:59:37;3.77;;;1.27;;
3278;SDS011;1651;50.940;6.888;2022-07-06T08:02:03;2.80;;;0.90;;
3278;SDS011;1651;50.940;6.888;2022-07-06T08:04:31;3.43;;;1.13;;
3278;SDS011;1651;50.940;6.888;2022-07-06T08:06:57;5.00;;;1.30;;
3278;SDS011;1651;50.940;6.888;2022-07-06T08:09:23;1.90;;;1.33;;
3278;SDS011;1651;50.940;6.888;2022-07-06T08:11:49;2.77;;;1.00;;
3278;SDS011;1651;50.940;6.888;2022-07-06T08:14:15;2.43;;;1.00;;
3278;SDS011;1651;50.940;6.888;2022-07-06T08:16:42;1.10;;;1.00;;
3278;SDS011;1651;50.940;6.888;2022-07-06T08:19:08;2.60;;;0.90;;
3278;SDS011;1651;50.940;6.888;2022-07-06T08:21:35;2.23;;;1.10;;
3278;SDS011;1651;50.940;6.888;2022-07-06T08:24:01;8.10;;;0.97;;
3278;SDS011;1651;50.940;6.888;2022-07-06T08:26:27;4.67;;;1.03;;
3278;SDS011;1651;50.940;6.888;2022-07-06T08:28:55;2.70;;;1.10;;
3278;SDS011;1651;50.940;6.888;2022-07-06T08:31:21;4.33;;;2.23;;
3278;SDS011;1651;50.940;6.888;2022-07-06T08:33:47;3.33;;;1.00;;
3278;SDS011;1651;50.940;6.888;2022-07-06T08:36:14;2.83;;;1.47;;
3278;SDS011;1651;50.940;6.888;2022-07-06T08:38:40;2.13;;;1.20;;
3278;SDS011;1651;50.940;6.888;2022-07-06T08:41:06;3.63;;;1.80;;
3278;SDS011;1651;50.940;6.888;2022-07-06T08:43:34;3.93;;;1.57;;
3278;SDS011;1651;50.940;6.888;2022-07-06T08:46:02;1.40;;;0.90;;
3278;SDS011;1651;50.940;6.888;2022-07-06T08:48:28;3.07;;;1.57;;
3278;SDS011;1651;50.940;6.888;2022-07-06T08:50:59;5.83;;;1.23;;
3278;SDS011;1651;50.940;6.888;2022-07-06T08:53:25;1.67;;;1.17;;
3278;SDS011;1651;50.940;6.888;2022-07-06T08:55:51;1.33;;;0.90;;
3278;SDS011;1651;50.940;6.888;2022-07-06T08:58:17;2.57;;;2.00;;
3278;SDS011;1651;50.940;6.888;2022-07-06T09:00:43;4.20;;;1.60;;
3278;SDS011;1651;50.940;6.888;2022-07-06T09:03:11;3.37;;;1.80;;
3278;SDS011;1651;50.940;6.888;2022-07-06T09:05:37;2.33;;;1.30;;
3278;SDS011;1651;50.940;6.888;2022-07-06T09:08:05;2.07;;;1.00;;
3278;SDS011;1651;50.940;6.888;2022-07-06T09:10:32;4.40;;;1.07;;
3278;SDS011;1651;50.940;6.888;2022-07-06T09:13:02;1.70;;;1.17;;
3278;SDS011;1651;50.940;6.888;2022-07-06T09:15:29;3.27;;;1.00;;
3278;SDS011;1651;50.940;6.888;2022-07-06T09:17:55;1.20;;;0.80;;
3278;SDS011;1651;50.940;6.888;2022-07-06T09:20:22;1.77;;;1.00;;
3278;SDS011;1651;50.940;6.888;2022-07-06T09:22:48;3.63;;;1.00;;
3278;SDS011;1651;50.940;6.888;2022-07-06T09:25:16;0.90;;;0.80;;
3278;SDS011;1651;50.940;6.888;2022-07-06T09:30:08;2.90;;;1.03;;
3278;SDS011;1651;50.940;6.888;2022-07-06T09:35:08;3.13;;;1.10;;
3278;SDS011;1651;50.940;6.888;2022-07-06T09:37:45;3.20;;;1.10;;
3278;SDS011;1651;50.940;6.888;2022-07-06T09:40:19;4.27;;;1.23;;
3278;SDS011;1651;50.940;6.888;2022-07-06T09:42:46;1.77;;;0.90;;
3278;SDS011;1651;50.940;6.888;2022-07-06T09:45:12;3.37;;;1.20;;
3278;SDS011;1651;50.940;6.888;2022-07-06T09:47:39;1.30;;;0.93;;
3278;SDS011;1651;50.940;6.888;2022-07-06T09:50:15;1.93;;;1.03;;
3278;SDS011;1651;50.940;6.888;2022-07-06T09:52:52;2.13;;;1.03;;
3278;SDS011;1651;50.940;6.888;2022-07-06T09:55:19;2.37;;;0.90;;
3278;SDS011;1651;50.940;6.888;2022-07-06T09:57:54;1.00;;;0.90;;
3278;SDS011;1651;50.940;6.888;2022-07-06T10:00:22;1.60;;;1.00;;
3278;SDS011;1651;50.940;6.888;2022-07-06T10:05:17;1.20;;;0.80;;
3278;SDS011;1651;50.940;6.888;2022-07-06T10:07:55;2.77;;;1.10;;
3278;SDS011;1651;50.940;6.888;2022-07-06T10:10:32;2.53;;;0.80;;
3278;SDS011;1651;50.940;6.888;2022-07-06T10:13:03;1.00;;;0.83;;
3278;SDS011;1651;50.940;6.888;2022-07-06T10:15:36;1.97;;;1.00;;
3278;SDS011;1651;50.940;6.888;2022-07-06T10:18:03;2.50;;;1.30;;
3278;SDS011;1651;50.940;6.888;2022-07-06T10:20:32;3.90;;;1.00;;
3278;SDS011;1651;50.940;6.888;2022-07-06T10:26:05;1.63;;;1.00;;
3278;SDS011;1651;50.940;6.888;2022-07-06T10:28:33;3.93;;;1.10;;
3278;SDS011;1651;50.940;6.888;2022-07-06T10:31:00;2.33;;;1.40;;
3278;SDS011;1651;50.940;6.888;2022-07-06T10:33:27;1.30;;;0.80;;
3278;SDS011;1651;50.940;6.888;2022-07-06T10:35:54;2.70;;;0.80;;
3278;SDS011;1651;50.940;6.888;2022-07-06T10:38:21;1.30;;;0.93;;
3278;SDS011;1651;50.940;6.888;2022-07-06T10:41:02;1.67;;;0.90;;
3278;SDS011;1651;50.940;6.888;2022-07-06T10:43:35;2.67;;;0.90;;
3278;SDS011;1651;50.940;6.888;2022-07-06T10:46:08;2.00;;;1.13;;
3278;SDS011;1651;50.940;6.888;2022-07-06T10:48:39;6.10;;;1.00;;
3278;SDS011;1651;50.940;6.888;2022-07-06T10:51:22;1.00;;;0.80;;
3278;SDS011;1651;50.940;6.888;2022-07-06T10:53:55;2.67;;;1.23;;
3278;SDS011;1651;50.940;6.888;2022-07-06T10:56:31;3.00;;;1.30;;
3278;SDS011;1651;50.940;6.888;2022-07-06T10:59:01;3.03;;;1.30;;
3278;SDS011;1651;50.940;6.888;2022-07-06T11:01:27;1.77;;;1.67;;
3278;SDS011;1651;50.940;6.888;2022-07-06T11:06:21;5.20;;;1.87;;
3278;SDS011;1651;50.940;6.888;2022-07-06T11:09:04;1.57;;;0.83;;
3278;SDS011;1651;50.940;6.888;2022-07-06T11:16:29;1.33;;;1.03;;
3278;SDS011;1651;50.940;6.888;2022-07-06T11:21:35;1.60;;;1.37;;
3278;SDS011;1651;50.940;6.888;2022-07-06T11:24:03;2.30;;;1.50;;
3278;SDS011;1651;50.940;6.888;2022-07-06T11:26:30;3.53;;;1.17;;
3278;SDS011;1651;50.940;6.888;2022-07-06T11:28:59;2.17;;;1.10;;
3278;SDS011;1651;50.940;6.888;2022-07-06T11:31:25;3.10;;;1.50;;
3278;SDS011;1651;50.940;6.888;2022-07-06T11:33:51;3.00;;;1.10;;
3278;SDS011;1651;50.940;6.888;2022-07-06T11:36:19;3.33;;;1.10;;
3278;SDS011;1651;50.940;6.888;2022-07-06T11:38:47;1.47;;;1.20;;
3278;SDS011;1651;50.940;6.888;2022-07-06T11:41:14;8.10;;;2.13;;
3278;SDS011;1651;50.940;6.888;2022-07-06T11:43:44;1.10;;;1.00;;
3278;SDS011;1651;50.940;6.888;2022-07-06T11:49:00;1.00;;;0.90;;
3278;SDS011;1651;50.940;6.888;2022-07-06T11:51:30;1.67;;;1.17;;
3278;SDS011;1651;50.940;6.888;2022-07-06T11:53:57;2.07;;;1.00;;
3278;SDS011;1651;50.940;6.888;2022-07-06T11:56:29;1.07;;;0.90;;
3278;SDS011;1651;50.940;6.888;2022-07-06T11:58:57;1.83;;;0.90;;
3278;SDS011;1651;50.940;6.888;2022-07-06T12:01:24;1.63;;;1.23;;
3278;SDS011;1651;50.940;6.888;2022-07-06T12:03:52;1.10;;;1.00;;
3278;SDS011;1651;50.940;6.888;2022-07-06T12:06:24;2.13;;;1.03;;
3278;SDS011;1651;50.940;6.888;2022-07-06T12:08:53;2.80;;;1.30;;
3278;SDS011;1651;50.940;6.888;2022-07-06T12:11:21;2.80;;;0.90;;
3278;SDS011;1651;50.940;6.888;2022-07-06T12:13:50;1.33;;;0.90;;
3278;SDS011;1651;50.940;6.888;2022-07-06T12:16:17;2.50;;;1.40;;
3278;SDS011;1651;50.940;6.888;2022-07-06T12:18:44;3.37;;;1.10;;
3278;SDS011;1651;50.940;6.888;2022-07-06T12:21:13;2.40;;;1.10;;
3278;SDS011;1651;50.940;6.888;2022-07-06T12:23:42;1.20;;;0.80;;
3278;SDS011;1651;50.940;6.888;2022-07-06T12:26:09;3.23;;;1.00;;
3278;SDS011;1651;50.940;6.888;2022-07-06T12:28:35;5.77;;;1.17;;
3278;SDS011;1651;50.940;6.888;2022-07-06T12:31:01;4.93;;;1.30;;
3278;SDS011;1651;50.940;6.888;2022-07-06T12:33:27;1.20;;;0.83;;
3278;SDS011;1651;50.940;6.888;2022-07-06T12:35:53;4.03;;;1.40;;
3278;SDS011;1651;50.940;6.888;2022-07-06T12:38:28;3.93;;;1.10;;
3278;SDS011;1651;50.940;6.888;2022-07-06T12:40:55;1.67;;;1.10;;
3278;SDS011;1651;50.940;6.888;2022-07-06T12:43:40;1.60;;;1.47;;
3278;SDS011;1651;50.940;6.888;2022-07-06T12:48:52;4.63;;;1.10;;
3278;SDS011;1651;50.940;6.888;2022-07-06T12:51:18;2.47;;;1.20;;
3278;SDS011;1651;50.940;6.888;2022-07-06T12:53:44;2.50;;;1.10;;
3278;SDS011;1651;50.940;6.888;2022-07-06T12:56:11;2.30;;;1.10;;
3278;SDS011;1651;50.940;6.888;2022-07-06T12:58:37;4.20;;;1.40;;
3278;SDS011;1651;50.940;6.888;2022-07-06T13:01:04;3.37;;;1.00;;
3278;SDS011;1651;50.940;6.888;2022-07-06T13:03:41;3.10;;;1.17;;
3278;SDS011;1651;50.940;6.888;2022-07-06T13:06:09;4.03;;;1.17;;
3278;SDS011;1651;50.940;6.888;2022-07-06T13:08:36;2.40;;;1.10;;
3278;SDS011;1651;50.940;6.888;2022-07-06T13:11:04;2.47;;;1.10;;
3278;SDS011;1651;50.940;6.888;2022-07-06T13:13:30;2.73;;;1.10;;
3278;SDS011;1651;50.940;6.888;2022-07-06T13:15:57;1.87;;;1.00;;
3278;SDS011;1651;50.940;6.888;2022-07-06T13:18:23;3.97;;;1.00;;
3278;SDS011;1651;50.940;6.888;2022-07-06T13:20:49;4.10;;;1.13;;
3278;SDS011;1651;50.940;6.888;2022-07-06T13:23:16;2.87;;;1.30;;
3278;SDS011;1651;50.940;6.888;2022-07-06T13:25:42;2.50;;;1.20;;
3278;SDS011;1651;50.940;6.888;2022-07-06T13:28:08;3.17;;;1.20;;
3278;SDS011;1651;50.940;6.888;2022-07-06T13:30:34;2.30;;;1.30;;
3278;SDS011;1651;50.940;6.888;2022-07-06T13:33:01;2.07;;;1.00;;
3278;SDS011;1651;50.940;6.888;2022-07-06T13:35:29;1.37;;;1.07;;
3278;SDS011;1651;50.940;6.888;2022-07-06T13:37:56;3.50;;;1.27;;
3278;SDS011;1651;50.940;6.888;2022-07-06T13:40:22;3.87;;;1.10;;
3278;SDS011;1651;50.940;6.888;2022-07-06T13:42:48;2.07;;;1.00;;
3278;SDS011;1651;50.940;6.888;2022-07-06T13:45:17;1.90;;;1.00;;
3278;SDS011;1651;50.940;6.888;2022-07-06T13:47:46;1.47;;;1.10;;
3278;SDS011;1651;50.940;6.888;2022-07-06T13:50:12;1.53;;;1.00;;
3278;SDS011;1651;50.940;6.888;2022-07-06T13:52:42;2.80;;;1.53;;
3278;SDS011;1651;50.940;6.888;2022-07-06T13:55:08;2.60;;;1.03;;
3278;SDS011;1651;50.940;6.888;2022-07-06T13:57:41;3.83;;;1.23;;
3278;SDS011;1651;50.940;6.888;2022-07-06T14:00:08;2.70;;;1.20;;
3278;SDS011;1651;50.940;6.888;2022-07-06T14:10:30;1.40;;;1.27;;
3278;SDS011;1651;50.940;6.888;2022-07-06T14:12:56;3.83;;;1.40;;
3278;SDS011;1651;50.940;6.888;2022-07-06T14:15:23;3.27;;;1.10;;
3278;SDS011;1651;50.940;6.888;2022-07-06T14:17:49;1.60;;;1.30;;
3278;SDS011;1651;50.940;6.888;2022-07-06T14:20:15;8.80;;;1.47;;
3278;SDS011;1651;50.940;6.888;2022-07-06T14:22:46;1.63;;;1.20;;
3278;SDS011;1651;50.940;6.888;2022-07-06T14:25:14;1.93;;;1.20;;
3278;SDS011;1651;50.940;6.888;2022-07-06T14:27:46;2.27;;;0.87;;
3278;SDS011;1651;50.940;6.888;2022-07-06T14:30:38;2.70;;;1.40;;
3278;SDS011;1651;50.940;6.888;2022-07-06T14:33:06;2.47;;;1.40;;
3278;SDS011;1651;50.940;6.888;2022-07-06T14:35:36;1.57;;;0.90;;
3278;SDS011;1651;50.940;6.888;2022-07-06T14:38:03;3.07;;;1.07;;
3278;SDS011;1651;50.940;6.888;2022-07-06T14:40:31;2.63;;;1.00;;
3278;SDS011;1651;50.940;6.888;2022-07-06T14:42:57;1.50;;;1.00;;
3278;SDS011;1651;50.940;6.888;2022-07-06T14:45:23;4.57;;;1.20;;
3278;SDS011;1651;50.940;6.888;2022-07-06T14:47:50;1.83;;;1.00;;
3278;SDS011;1651;50.940;6.888;2022-07-06T14:50:16;5.00;;;1.03;;
3278;SDS011;1651;50.940;6.888;2022-07-06T14:52:43;1.97;;;1.20;;
3278;SDS011;1651;50.940;6.888;2022-07-06T14:55:09;1.87;;;1.20;;
3278;SDS011;1651;50.940;6.888;2022-07-06T14:57:35;1.97;;;1.10;;
3278;SDS011;1651;50.940;6.888;2022-07-06T15:00:01;2.60;;;1.50;;
3278;SDS011;1651;50.940;6.888;2022-07-06T15:02:28;2.93;;;1.37;;
3278;SDS011;1651;50.940;6.888;2022-07-06T15:04:54;1.57;;;1.10;;
3278;SDS011;1651;50.940;6.888;2022-07-06T15:07:20;1.90;;;1.00;;
3278;SDS011;1651;50.940;6.888;2022-07-06T15:09:47;6.03;;;1.50;;
3278;SDS011;1651;50.940;6.888;2022-07-06T15:12:13;1.97;;;0.90;;
3278;SDS011;1651;50.940;6.888;2022-07-06T15:14:40;4.43;;;1.10;;
3278;SDS011;1651;50.940;6.888;2022-07-06T15:17:06;2.87;;;1.23;;
3278;SDS011;1651;50.940;6.888;2022-07-06T15:19:32;6.13;;;1.17;;
3278;SDS011;1651;50.940;6.888;2022-07-06T15:21:58;2.03;;;1.40;;
3278;SDS011;1651;50.940;6.888;2022-07-06T15:24:26;2.20;;;1.20;;
3278;SDS011;1651;50.940;6.888;2022-07-06T15:31:50;3.73;;;1.13;;
3278;SDS011;1651;50.940;6.888;2022-07-06T15:34:17;1.50;;;1.10;;
3278;SDS011;1651;50.940;6.888;2022-07-06T15:36:45;1.67;;;1.27;;
3278;SDS011;1651;50.940;6.888;2022-07-06T15:39:11;2.93;;;1.30;;
3278;SDS011;1651;50.940;6.888;2022-07-06T15:41:37;1.20;;;1.00;;
3278;SDS011;1651;50.940;6.888;2022-07-06T15:44:05;1.40;;;0.90;;
3278;SDS011;1651;50.940;6.888;2022-07-06T15:46:31;2.07;;;1.23;;
3278;SDS011;1651;50.940;6.888;2022-07-06T15:48:57;2.80;;;1.10;;
3278;SDS011;1651;50.940;6.888;2022-07-06T15:51:23;2.00;;;1.03;;
3278;SDS011;1651;50.940;6.888;2022-07-06T15:53:49;1.30;;;1.00;;
3278;SDS011;1651;50.940;6.888;2022-07-06T15:56:16;4.73;;;1.63;;
3278;SDS011;1651;50.940;6.888;2022-07-06T15:58:42;3.00;;;1.50;;